createdAt,value
2022-10-16T00:00:44.086Z,52209.18
2022-10-16T00:03:15.666Z,52233.29
2022-10-16T00:05:47.108Z,52228.07
2022-10-16T00:08:18.609Z,52226.05
2022-10-16T00:10:49.965Z,52230.48
2022-10-16T00:13:22.082Z,52220.03
2022-10-16T00:15:53.563Z,52234.49
2022-10-16T00:18:25.564Z,52222.84
2022-10-16T00:20:57.062Z,52228.47
2022-10-16T00:23:28.551Z,52236.10
2022-10-16T00:26:01.045Z,52226.06
2022-10-16T00:28:32.722Z,52215.61
2022-10-16T00:31:07.087Z,52226.86
2022-10-16T00:33:38.937Z,52240.93
2022-10-16T00:36:11.822Z,52246.55
2022-10-16T00:38:43.539Z,52239.72
2022-10-16T00:41:16.669Z,52227.26
2022-10-16T00:43:48.946Z,52234.09
2022-10-16T00:46:22.560Z,52235.70
2022-10-16T00:48:57.306Z,52227.26
2022-10-16T00:51:31.232Z,52220.03
2022-10-16T00:54:02.666Z,52215.20
2022-10-16T00:56:34.519Z,52227.26
2022-10-16T00:59:08.868Z,52248.56
2022-10-16T01:01:40.742Z,52263.02
2022-10-16T01:04:12.191Z,52230.07
2022-10-16T01:06:46.117Z,52240.52
2022-10-16T01:09:20.152Z,52242.53
2022-10-16T01:12:00.744Z,52234.09
2022-10-16T01:14:38.042Z,52251.38
2022-10-16T01:17:12.003Z,52249.36
2022-10-16T01:20:05.201Z,52252.58
2022-10-16T01:22:44.943Z,52242.13
2022-10-16T01:25:25.464Z,52241.73
2022-10-16T01:27:56.870Z,52246.15
2022-10-16T01:30:30.243Z,52250.57
2022-10-16T01:33:03.540Z,52246.15
2022-10-16T01:35:37.928Z,52252.18
2022-10-16T01:38:10.599Z,52231.68
2022-10-16T01:40:43.808Z,52252.18
2022-10-16T01:43:17.326Z,52235.70
2022-10-16T01:45:48.730Z,52257.40
2022-10-16T01:48:21.326Z,52255.39
2022-10-16T01:50:57.300Z,52230.88
2022-10-16T01:53:29.042Z,52244.14
2022-10-16T01:55:58.917Z,52257.80
2022-10-16T01:58:32.141Z,52236.91
2022-10-16T02:01:04.021Z,52248.16
2022-10-16T02:03:36.022Z,52246.96
2022-10-16T02:06:07.599Z,52252.18
2022-10-16T02:08:40.095Z,52254.19
2022-10-16T02:11:11.672Z,52243.34
2022-10-16T02:13:45.971Z,52249.77
2022-10-16T02:16:17.537Z,52251.37
2022-10-16T02:18:49.140Z,52240.93
2022-10-16T02:21:21.628Z,52242.13
2022-10-16T02:23:57.002Z,52249.77
2022-10-16T02:26:31.361Z,52258.21
2022-10-16T02:29:05.912Z,52269.86
2022-10-16T02:31:38.165Z,52268.65
2022-10-16T02:34:09.577Z,52274.68
2022-10-16T02:36:41.326Z,52258.61
2022-10-16T02:39:12.620Z,52260.62
2022-10-16T02:41:42.803Z,52264.23
2022-10-16T02:44:15.263Z,52246.55
2022-10-16T02:46:46.711Z,52268.25
2022-10-16T02:49:19.387Z,52252.98
2022-10-16T02:51:50.972Z,52252.58
2022-10-16T02:54:22.738Z,52253.79
2022-10-16T02:56:54.264Z,52269.46
2022-10-16T02:59:25.558Z,52267.85
2022-10-16T03:01:57.467Z,52261.42
2022-10-16T03:04:28.924Z,52253.38
2022-10-16T03:07:00.715Z,52278.70
2022-10-16T03:09:32.229Z,52257.80
2022-10-16T03:12:03.807Z,52263.83
2022-10-16T03:14:35.318Z,52264.23
2022-10-16T03:17:07.100Z,52258.61
2022-10-16T03:19:38.579Z,52267.45
2022-10-16T03:22:10.139Z,52277.49
2022-10-16T03:24:39.941Z,52270.66
2022-10-16T03:27:12.335Z,52260.21
2022-10-16T03:29:43.779Z,52277.09
2022-10-16T03:32:15.587Z,52266.24
2022-10-16T03:34:45.225Z,52272.67
2022-10-16T03:37:16.846Z,52265.44
2022-10-16T03:39:46.541Z,52261.42
2022-10-16T03:42:18.140Z,52271.47
2022-10-16T03:44:49.546Z,52267.85
2022-10-16T03:47:23.205Z,52283.12
2022-10-16T03:49:54.755Z,52265.44
2022-10-16T03:52:26.265Z,52262.63
2022-10-16T03:54:57.865Z,52265.44
2022-10-16T03:57:28.007Z,52259.01
2022-10-16T03:59:59.915Z,52277.90
2022-10-16T04:02:31.580Z,52272.27
2022-10-16T04:05:03.119Z,52291.16
2022-10-16T04:07:34.637Z,52276.69
2022-10-16T04:10:06.687Z,52265.84
2022-10-16T04:12:38.103Z,52287.54
2022-10-16T04:15:11.235Z,52270.66
2022-10-16T04:17:42.632Z,52279.91
2022-10-16T04:20:14.093Z,52261.42
2022-10-16T04:22:45.550Z,52279.50
2022-10-16T04:25:17.020Z,52278.30
2022-10-16T04:27:48.617Z,52273.48
2022-10-16T04:30:20.282Z,52276.69
2022-10-16T04:32:51.693Z,52274.28
2022-10-16T04:35:23.565Z,52277.49
2022-10-16T04:37:53.391Z,52260.62
2022-10-16T04:40:24.970Z,52279.50
2022-10-16T04:42:54.968Z,52291.56
2022-10-16T04:45:26.339Z,52272.68
2022-10-16T04:48:01.438Z,52274.68
2022-10-16T04:50:33.371Z,52265.84
2022-10-16T04:53:10.956Z,52281.51
2022-10-16T04:55:43.356Z,52284.73
2022-10-16T04:58:14.820Z,52279.50
2022-10-16T05:00:47.414Z,52255.39
2022-10-16T05:03:19.212Z,52264.23
2022-10-16T05:05:51.369Z,52259.81
2022-10-16T05:08:21.194Z,52259.01
2022-10-16T05:10:52.968Z,52258.61
2022-10-16T05:13:25.654Z,52257.00
2022-10-16T05:15:58.452Z,52250.57
2022-10-16T05:18:29.981Z,52283.52
2022-10-16T05:21:01.492Z,52271.87
2022-10-16T05:23:32.993Z,52257.00
2022-10-16T05:26:04.420Z,52244.95
2022-10-16T05:28:36.018Z,52243.74
2022-10-16T05:31:09.955Z,52248.16
2022-10-16T05:33:41.390Z,52271.87
2022-10-16T05:36:14.158Z,52246.55
2022-10-16T05:38:45.667Z,52241.73
2022-10-16T05:41:22.523Z,52247.35
2022-10-16T05:43:53.887Z,52244.54
2022-10-16T05:46:25.431Z,52244.14
2022-10-16T05:48:57.308Z,52246.96
2022-10-16T05:51:29.186Z,52231.68
2022-10-16T05:54:00.941Z,52233.29
2022-10-16T05:56:32.437Z,52233.29
2022-10-16T05:59:04.107Z,52225.25
2022-10-16T06:01:34.167Z,52225.26
2022-10-16T06:04:05.756Z,52228.87
2022-10-16T06:06:37.905Z,52220.84
2022-10-16T06:09:09.530Z,52228.87
2022-10-16T06:11:39.559Z,52234.09
2022-10-16T06:14:11.964Z,52214.00
2022-10-16T06:16:43.578Z,52226.86
2022-10-16T06:19:15.118Z,52213.20
2022-10-16T06:21:46.699Z,52203.96
2022-10-16T06:24:18.127Z,52203.96
2022-10-16T06:26:52.337Z,52214.40
2022-10-16T06:29:25.502Z,52214.00
2022-10-16T06:31:57.171Z,52213.20
2022-10-16T06:34:27.170Z,52214.80
2022-10-16T06:36:58.732Z,52220.03
2022-10-16T06:39:28.629Z,52210.38
2022-10-16T06:44:34.548Z,52202.34
2022-10-16T06:47:06.726Z,52201.95
2022-10-16T06:49:38.838Z,52205.56
2022-10-16T06:52:10.259Z,52177.83
2022-10-16T06:54:42.497Z,52195.92
2022-10-16T06:57:14.501Z,52191.90
2022-10-16T06:59:46.820Z,52199.94
2022-10-16T07:02:18.686Z,52196.32
2022-10-16T07:04:50.143Z,52179.44
2022-10-16T07:07:21.720Z,52177.83
2022-10-16T07:09:53.332Z,52179.84
2022-10-16T07:12:25.092Z,52175.82
2022-10-16T07:14:57.587Z,52172.21
2022-10-16T07:17:29.022Z,52166.18
2022-10-16T07:20:00.968Z,52178.24
2022-10-16T07:22:34.067Z,52169.40
2022-10-16T07:25:05.780Z,52183.06
2022-10-16T07:30:14.695Z,52153.32
2022-10-16T07:32:46.663Z,52176.63
2022-10-16T07:35:18.299Z,52163.37
2022-10-16T07:37:50.225Z,52167.79
2022-10-16T07:40:21.908Z,52176.63
2022-10-16T07:42:53.902Z,52163.77
2022-10-16T07:45:23.678Z,52164.98
2022-10-16T07:47:55.778Z,52150.91
2022-10-16T07:50:27.261Z,52149.71
2022-10-16T07:52:58.909Z,52161.76
2022-10-16T07:55:30.377Z,52154.13
2022-10-16T07:58:01.957Z,52149.30
2022-10-16T08:00:34.175Z,52151.31
2022-10-16T08:03:05.882Z,52152.12
2022-10-16T08:05:36.535Z,52140.46
2022-10-16T08:08:08.503Z,52141.27
2022-10-16T08:10:40.730Z,52152.12
2022-10-16T08:13:12.257Z,52124.39
2022-10-16T08:15:43.777Z,52140.87
2022-10-16T08:18:15.769Z,52115.55
2022-10-16T08:20:47.376Z,52131.22
2022-10-16T08:23:17.312Z,52123.18
2022-10-16T08:25:48.639Z,52123.59
2022-10-16T08:28:20.156Z,52109.12
2022-10-16T08:30:51.707Z,52103.09
2022-10-16T08:33:23.527Z,52110.32
2022-10-16T08:35:58.059Z,52100.68
2022-10-16T08:38:30.106Z,52111.53
2022-10-16T08:41:11.217Z,52087.82
2022-10-16T08:44:01.047Z,52096.66
2022-10-16T08:46:43.286Z,52093.85
2022-10-16T08:49:17.509Z,52087.82
2022-10-16T08:51:50.693Z,52081.39
2022-10-16T08:54:28.785Z,52078.57
2022-10-16T08:57:00.670Z,52073.35
2022-10-16T08:59:32.424Z,52088.22
2022-10-16T09:02:03.210Z,52055.67
2022-10-16T09:04:57.092Z,52063.30
2022-10-16T09:07:31.308Z,52068.93
2022-10-16T09:10:16.744Z,52054.06
2022-10-16T09:12:51.726Z,52070.54
2022-10-16T09:15:30.387Z,52070.14
2022-10-16T09:18:05.069Z,52049.24
2022-10-16T09:20:40.328Z,52062.10
2022-10-16T09:23:21.963Z,52061.30
2022-10-16T09:25:53.768Z,52044.02
2022-10-16T09:28:25.783Z,52063.71
2022-10-16T09:30:57.538Z,52061.70
2022-10-16T09:33:28.747Z,52064.91
2022-10-16T09:36:00.827Z,52042.01
2022-10-16T09:38:33.239Z,52060.49
2022-10-16T09:41:05.496Z,52053.66
2022-10-16T09:43:39.455Z,52041.21
2022-10-16T09:46:11.789Z,52035.18
2022-10-16T09:48:45.810Z,52044.02
2022-10-16T09:51:21.258Z,52052.46
2022-10-16T09:53:56.305Z,52042.41
2022-10-16T09:56:29.025Z,52037.59
2022-10-16T09:59:02.262Z,52042.01
2022-10-16T10:01:38.204Z,52058.88
2022-10-16T10:04:10.108Z,52029.15
2022-10-16T10:06:43.596Z,52038.39
2022-10-16T10:09:22.859Z,52040.00
2022-10-16T10:11:55.956Z,52019.51
2022-10-16T10:14:34.615Z,52032.37
2022-10-16T10:17:20.357Z,52022.32
2022-10-16T10:19:53.700Z,52037.19
2022-10-16T10:22:31.458Z,52021.11
2022-10-16T10:25:17.430Z,52019.50
2022-10-16T10:28:02.834Z,52010.27
2022-10-16T10:30:39.130Z,52004.64
2022-10-16T10:33:26.731Z,52005.84
2022-10-16T10:36:03.651Z,52005.45
2022-10-16T10:38:41.415Z,52005.04
2022-10-16T10:41:31.265Z,51992.98
2022-10-16T10:44:06.948Z,51982.94
2022-10-16T10:46:43.398Z,51994.59
2022-10-16T10:49:25.790Z,51991.78
2022-10-16T10:52:01.881Z,51988.56
2022-10-16T10:54:37.580Z,52005.84
2022-10-16T10:57:12.730Z,51996.60
2022-10-16T10:59:53.521Z,51985.75
2022-10-16T11:02:29.002Z,51971.69
2022-10-16T11:05:20.445Z,51977.72
2022-10-16T11:07:54.506Z,51957.62
2022-10-16T11:10:27.242Z,51969.27
2022-10-16T11:12:59.875Z,51982.13
2022-10-16T11:15:32.031Z,51962.85
2022-10-16T11:18:06.468Z,51959.63
2022-10-16T11:20:40.064Z,51946.77
2022-10-16T11:23:16.930Z,51926.68
2022-10-16T11:25:48.547Z,51929.50
2022-10-16T11:28:21.557Z,51917.44
2022-10-16T11:30:54.878Z,51928.29
2022-10-16T11:33:32.726Z,51940.34
2022-10-16T11:36:08.887Z,51936.33
2022-10-16T11:38:42.519Z,51935.93
2022-10-16T11:41:19.826Z,51904.98
2022-10-16T11:43:54.682Z,51907.80
2022-10-16T11:46:26.432Z,51920.25
2022-10-16T11:48:59.997Z,51926.68
2022-10-16T11:51:35.103Z,51920.65
2022-10-16T11:54:10.661Z,51894.54
2022-10-16T11:56:43.159Z,51903.38
2022-10-16T11:59:19.383Z,51902.98
2022-10-16T12:01:52.744Z,51901.37
2022-10-16T12:04:28.737Z,51882.88
2022-10-16T12:07:02.315Z,51859.58
2022-10-16T12:09:34.747Z,51868.82
2022-10-16T12:12:07.764Z,51872.03
2022-10-16T12:15:11.141Z,51859.18
2022-10-16T12:17:40.623Z,51883.69
2022-10-16T12:20:28.409Z,51882.48
2022-10-16T12:23:00.671Z,51880.48
2022-10-16T12:25:33.545Z,51877.66
2022-10-16T12:28:06.688Z,51884.49
2022-10-16T12:30:38.607Z,51889.71
2022-10-16T12:33:23.698Z,51874.85
2022-10-16T12:35:55.708Z,51879.67
2022-10-16T12:38:29.901Z,51873.64
2022-10-16T12:41:03.230Z,51873.64
2022-10-16T12:43:45.280Z,51866.81
2022-10-16T12:46:36.919Z,51860.38
2022-10-16T12:49:25.747Z,51862.39
2022-10-16T12:51:57.956Z,51857.16
2022-10-16T12:54:32.755Z,51851.54
2022-10-16T12:57:26.282Z,51863.19
2022-10-16T13:00:01.631Z,51868.82
2022-10-16T13:02:56.359Z,51880.47
2022-10-16T13:05:33.219Z,51878.06
2022-10-16T13:08:14.444Z,51906.59
2022-10-16T13:10:54.239Z,51887.30
2022-10-16T13:13:48.528Z,51874.04
2022-10-16T13:16:24.927Z,51881.68
2022-10-16T13:19:02.821Z,51894.13
2022-10-16T13:21:44.156Z,51896.54
2022-10-16T13:24:25.357Z,51899.36
2022-10-16T13:26:59.969Z,51902.98
2022-10-16T13:29:35.133Z,51903.78
2022-10-16T13:32:16.865Z,51909.80
2022-10-16T13:34:49.810Z,51923.87
2022-10-16T13:37:23.253Z,51930.30
2022-10-16T13:40:04.272Z,51931.91
2022-10-16T13:42:35.992Z,51929.09
2022-10-16T13:45:06.072Z,51923.87
2022-10-16T13:47:37.650Z,51915.43
2022-10-16T13:50:12.642Z,51930.30
2022-10-16T13:52:44.234Z,51936.32
2022-10-16T13:55:14.806Z,51928.69
2022-10-16T13:57:46.804Z,51914.63
2022-10-16T14:00:26.243Z,51928.29
2022-10-16T14:03:01.645Z,51925.48
2022-10-16T14:05:33.113Z,51932.31
2022-10-16T14:08:03.172Z,51939.95
2022-10-16T14:10:35.958Z,51950.39
2022-10-16T14:13:08.430Z,51949.99
2022-10-16T14:15:40.039Z,51947.18
2022-10-16T14:18:16.434Z,51943.55
2022-10-16T14:20:47.938Z,51966.87
2022-10-16T14:23:27.495Z,51963.25
2022-10-16T14:26:09.156Z,51975.30
2022-10-16T14:28:42.360Z,51979.72
2022-10-16T14:31:33.103Z,51975.70
2022-10-16T14:34:05.637Z,51984.95
2022-10-16T14:36:37.648Z,52009.46
2022-10-16T14:39:17.747Z,51998.61
2022-10-16T14:41:51.758Z,52015.89
2022-10-16T14:44:23.836Z,52014.68
2022-10-16T14:46:55.626Z,52033.57
2022-10-16T14:49:29.520Z,52037.19
2022-10-16T14:52:01.533Z,52025.93
2022-10-16T14:54:33.064Z,52027.54
2022-10-16T14:57:05.855Z,52034.77
2022-10-16T14:59:39.313Z,52056.88
2022-10-16T15:02:18.402Z,52057.68
2022-10-16T15:04:50.368Z,52057.68
2022-10-16T15:07:22.651Z,52058.48
2022-10-16T15:09:58.233Z,52050.85
2022-10-16T15:12:29.663Z,52071.34
2022-10-16T15:15:01.181Z,52056.88
2022-10-16T15:17:32.698Z,52078.98
2022-10-16T15:20:04.526Z,52067.32
2022-10-16T15:22:34.298Z,52063.71
2022-10-16T15:25:07.539Z,52076.97
2022-10-16T15:27:41.518Z,52085.01
2022-10-16T15:30:14.872Z,52076.57
2022-10-16T15:32:46.386Z,52071.34
2022-10-16T15:35:17.978Z,52085.81
2022-10-16T15:37:50.056Z,52071.34
2022-10-16T15:40:21.875Z,52090.23
2022-10-16T15:42:53.233Z,52079.38
2022-10-16T15:45:24.739Z,52090.23
2022-10-16T15:47:56.139Z,52089.82
2022-10-16T15:50:27.505Z,52083.40
2022-10-16T15:52:59.088Z,52091.04
2022-10-16T15:55:31.165Z,52079.78
2022-10-16T15:58:03.093Z,52093.45
2022-10-16T16:00:37.338Z,52086.61
2022-10-16T16:03:08.933Z,52087.41
2022-10-16T16:05:46.601Z,52105.90
2022-10-16T16:08:18.999Z,52092.64
2022-10-16T16:11:01.017Z,52084.20
2022-10-16T16:13:32.559Z,52095.86
2022-10-16T16:16:04.241Z,52105.90
2022-10-16T16:18:35.758Z,52102.69
2022-10-16T16:21:07.819Z,52086.62
2022-10-16T16:23:39.299Z,52114.74
2022-10-16T16:26:12.200Z,52103.49
2022-10-16T16:28:44.214Z,52103.89
2022-10-16T16:31:15.772Z,52114.74
2022-10-16T16:33:47.269Z,52079.38
2022-10-16T16:36:19.127Z,52094.65
2022-10-16T16:38:48.901Z,52112.34
2022-10-16T16:41:21.569Z,52108.71
2022-10-16T16:43:52.972Z,52102.69
2022-10-16T16:46:24.571Z,52114.74
2022-10-16T16:48:56.751Z,52112.33
2022-10-16T16:51:28.277Z,52112.73
2022-10-16T16:53:59.885Z,52122.78
2022-10-16T16:56:31.496Z,52120.77
2022-10-16T16:59:02.927Z,52111.93
2022-10-16T17:01:34.512Z,52113.94
2022-10-16T17:04:06.596Z,52112.33
2022-10-16T17:06:38.345Z,52124.79
2022-10-16T17:09:10.683Z,52121.18
2022-10-16T17:11:45.709Z,52124.39
2022-10-16T17:14:17.163Z,52132.02
2022-10-16T17:16:50.048Z,52134.84
2022-10-16T17:19:22.041Z,52109.92
2022-10-16T17:21:53.891Z,52130.41
2022-10-16T17:24:25.349Z,52146.09
2022-10-16T17:26:57.529Z,52123.18
2022-10-16T17:29:29.078Z,52133.63
2022-10-16T17:32:01.134Z,52135.64
2022-10-16T17:34:32.920Z,52127.20
2022-10-16T17:37:02.585Z,52133.23
2022-10-16T17:39:34.392Z,52119.97
2022-10-16T17:42:06.520Z,52133.23
2022-10-16T17:44:38.257Z,52124.79
2022-10-16T17:47:07.950Z,52131.22
2022-10-16T17:49:40.079Z,52135.64
2022-10-16T17:52:11.762Z,52144.48
2022-10-16T17:54:42.458Z,52129.21
2022-10-16T17:57:14.050Z,52135.64
2022-10-16T17:59:45.876Z,52139.26
2022-10-16T18:02:18.770Z,52134.03
2022-10-16T18:04:52.344Z,52157.74
2022-10-16T18:07:24.105Z,52149.30
2022-10-16T18:10:10.305Z,52158.14
2022-10-16T18:12:43.002Z,52156.13
2022-10-16T18:15:14.623Z,52134.84
2022-10-16T18:17:46.468Z,52147.70
2022-10-16T18:20:18.041Z,52163.37
2022-10-16T18:22:49.464Z,52140.05
2022-10-16T18:25:21.102Z,52147.70
2022-10-16T18:27:52.761Z,52136.85
2022-10-16T18:30:24.519Z,52153.73
2022-10-16T18:32:56.198Z,52152.12
2022-10-16T18:35:27.857Z,52154.52
2022-10-16T18:38:00.929Z,52147.70
2022-10-16T18:40:32.344Z,52152.52
2022-10-16T18:43:03.872Z,52160.15
2022-10-16T18:45:35.391Z,52147.29
2022-10-16T18:48:07.657Z,52146.89
2022-10-16T18:50:39.427Z,52156.94
2022-10-16T18:53:09.369Z,52158.55
2022-10-16T18:55:40.999Z,52160.15
2022-10-16T18:58:12.552Z,52177.84
2022-10-16T19:00:43.983Z,52152.92
2022-10-16T19:03:15.622Z,52150.91
2022-10-16T19:05:47.705Z,52164.98
2022-10-16T19:08:19.446Z,52158.54
2022-10-16T19:10:51.183Z,52162.97
2022-10-16T19:13:22.858Z,52166.18
2022-10-16T19:15:58.517Z,52164.97
2022-10-16T19:18:38.871Z,52164.98
2022-10-16T19:21:11.080Z,52165.78
2022-10-16T19:23:42.623Z,52159.75
2022-10-16T19:26:15.903Z,52156.13
2022-10-16T19:28:47.543Z,52159.75
2022-10-16T19:31:20.229Z,52171.00
2022-10-16T19:33:54.536Z,52148.90
2022-10-16T19:36:27.446Z,52155.73
2022-10-16T19:38:59.667Z,52165.38
2022-10-16T19:41:31.092Z,52164.57
2022-10-16T19:44:05.081Z,52165.38
2022-10-16T19:46:36.684Z,52171.40
2022-10-16T19:49:09.589Z,52162.96
2022-10-16T19:51:41.366Z,52153.72
2022-10-16T19:54:12.892Z,52181.05
2022-10-16T19:56:44.384Z,52177.43
2022-10-16T19:59:19.277Z,52171.41
2022-10-16T20:01:51.201Z,52170.20
2022-10-16T20:04:22.764Z,52184.26
2022-10-16T20:09:27.573Z,52162.96
2022-10-16T20:11:59.314Z,52175.02
2022-10-16T20:14:31.115Z,52174.22
2022-10-16T20:17:02.577Z,52179.45
2022-10-16T20:19:34.557Z,52180.65
2022-10-16T20:22:06.403Z,52179.04
2022-10-16T20:24:38.129Z,52177.43
2022-10-16T20:27:08.084Z,52184.66
2022-10-16T20:29:39.673Z,52171.80
2022-10-16T20:32:11.095Z,52183.86
2022-10-16T20:34:46.603Z,52170.20
2022-10-16T20:37:18.306Z,52176.63
2022-10-16T20:39:48.456Z,52177.43
2022-10-16T20:42:20.130Z,52171.80
2022-10-16T20:44:51.290Z,52167.39
2022-10-16T20:47:24.081Z,52190.70
2022-10-16T20:49:57.481Z,52185.07
2022-10-16T20:52:29.014Z,52185.87
2022-10-16T20:54:59.059Z,52183.05
2022-10-16T20:57:30.947Z,52200.74
2022-10-16T21:00:02.427Z,52179.84
2022-10-16T21:02:33.922Z,52185.47
2022-10-16T21:05:05.694Z,52179.45
2022-10-16T21:07:37.553Z,52188.69
2022-10-16T21:10:10.880Z,52181.85
2022-10-16T21:12:42.540Z,52174.62
2022-10-16T21:15:15.715Z,52197.52
2022-10-16T21:17:48.780Z,52204.76
2022-10-16T21:20:20.738Z,52195.52
2022-10-16T21:22:52.231Z,52197.93
2022-10-16T21:25:24.147Z,52192.30
2022-10-16T21:27:55.965Z,52198.33
2022-10-16T21:30:27.696Z,52203.15
2022-10-16T21:32:57.674Z,52220.43
2022-10-16T21:35:29.580Z,52217.62
2022-10-16T21:38:01.958Z,52189.49
2022-10-16T21:40:34.520Z,52195.52
2022-10-16T21:43:06.073Z,52212.79
2022-10-16T21:45:37.819Z,52204.35
2022-10-16T21:48:07.977Z,52209.98
2022-10-16T21:50:39.653Z,52200.74
2022-10-16T21:53:09.550Z,52200.74
2022-10-16T21:55:41.134Z,52203.96
2022-10-16T21:58:12.648Z,52201.14
2022-10-16T22:00:44.225Z,52221.63
2022-10-16T22:03:16.265Z,52191.90
2022-10-16T22:05:48.235Z,52219.23
2022-10-16T22:08:20.318Z,52216.01
2022-10-16T22:10:52.041Z,52203.15
2022-10-16T22:13:22.808Z,52210.79
2022-10-16T22:15:56.252Z,52215.21
2022-10-16T22:18:28.237Z,52191.09
2022-10-16T22:21:00.118Z,52205.16
2022-10-16T22:23:29.964Z,52206.77
2022-10-16T22:26:07.057Z,52201.95
2022-10-16T22:28:38.914Z,52210.38
2022-10-16T22:31:11.793Z,52206.37
2022-10-16T22:33:44.106Z,52215.61
2022-10-16T22:36:16.450Z,52204.35
2022-10-16T22:38:48.489Z,52210.38
2022-10-16T22:41:20.347Z,52200.34
2022-10-16T22:43:50.522Z,52220.43
2022-10-16T22:46:22.837Z,52209.18
2022-10-16T22:48:55.852Z,52212.80
2022-10-16T22:51:29.646Z,52218.42
2022-10-16T22:54:01.882Z,52216.01
2022-10-16T22:56:33.248Z,52215.61
2022-10-16T22:59:05.181Z,52213.20
2022-10-16T23:01:35.846Z,52218.43
2022-10-16T23:04:07.541Z,52214.41
2022-10-16T23:06:39.104Z,52224.85
2022-10-16T23:09:11.630Z,52206.37
2022-10-16T23:11:43.398Z,52224.05
2022-10-16T23:14:13.383Z,52221.23
2022-10-16T23:16:45.342Z,52220.43
2022-10-16T23:19:15.697Z,52230.07
2022-10-16T23:21:48.041Z,52212.80
2022-10-16T23:24:19.864Z,52206.77
2022-10-16T23:26:52.002Z,52224.85
2022-10-16T23:29:23.784Z,52218.42
2022-10-16T23:31:53.713Z,52206.37
2022-10-16T23:34:25.489Z,52216.41
2022-10-16T23:36:55.629Z,52223.24
2022-10-16T23:39:27.278Z,52215.20
2022-10-16T23:41:57.177Z,52210.38
2022-10-16T23:44:29.001Z,52226.86
2022-10-16T23:47:00.962Z,52218.02
2022-10-16T23:49:32.826Z,52227.26
2022-10-16T23:52:04.844Z,52218.82
2022-10-16T23:54:36.886Z,52220.03
2022-10-16T23:57:08.533Z,52204.76
2022-10-16T23:59:40.238Z,52208.77
